Time;durP1;ratioP1;P1;durP2;ratioP2;P2;SDS_P1;SDS_P2;PMS_P1;PMS_P2;Temp;Humidity;BMP_temperature;BMP_pressure;BME280_temperature;BME280_humidity;BME280_pressure;Samples;Min_cycle;Max_cycle;Signal;HPM_P1;HPM_P2
2021/10/24 00:01:11;;;;;;;7.13;5.90;;;10.10;56.40;;;;;;5048651;28;20220;-52
2021/10/24 00:03:37;;;;;;;10.00;7.07;;;10.10;56.30;;;;;;5052470;28;20203;-50
2021/10/24 00:06:03;;;;;;;9.00;7.13;;;10.10;56.30;;;;;;5049683;28;20548;-50
2021/10/24 00:08:29;;;;;;;7.30;5.77;;;10.10;56.30;;;;;;5050473;28;20194;-51
2021/10/24 00:10:55;;;;;;;8.73;7.73;;;10.20;56.10;;;;;;5048143;28;20192;-49
2021/10/24 00:13:20;;;;;;;11.17;8.17;;;10.20;55.90;;;;;;5056359;28;20482;-52
2021/10/24 00:15:46;;;;;;;13.33;8.00;;;10.20;55.80;;;;;;5047007;28;20189;-51
2021/10/24 00:18:12;;;;;;;13.10;7.50;;;10.10;55.70;;;;;;5046651;28;20219;-54
2021/10/24 00:20:38;;;;;;;14.17;8.93;;;10.10;55.70;;;;;;5051129;28;20674;-51
2021/10/24 00:23:03;;;;;;;11.00;7.53;;;10.20;55.60;;;;;;5054281;28;20251;-50
2021/10/24 00:25:29;;;;;;;8.00;6.80;;;10.20;55.50;;;;;;5050318;28;20192;-51
2021/10/24 00:27:54;;;;;;;7.63;6.83;;;10.20;55.30;;;;;;5054750;28;20225;-53
2021/10/24 00:30:20;;;;;;;8.87;6.33;;;10.30;55.20;;;;;;5057679;28;20197;-51
2021/10/24 00:32:46;;;;;;;7.60;6.13;;;10.30;55.10;;;;;;5054026;28;20240;-52
2021/10/24 00:35:11;;;;;;;7.33;6.57;;;10.40;54.90;;;;;;5054182;28;20200;-51
2021/10/24 00:37:37;;;;;;;8.70;7.10;;;10.40;54.60;;;;;;5050981;28;20612;-52
2021/10/24 00:40:04;;;;;;;8.53;7.50;;;10.30;54.40;;;;;;5059706;28;20555;-54
2021/10/24 00:42:30;;;;;;;9.90;7.50;;;10.30;54.40;;;;;;5048440;28;20684;-51
2021/10/24 00:44:56;;;;;;;10.27;6.80;;;10.20;54.70;;;;;;5054624;28;20434;-50
2021/10/24 00:47:22;;;;;;;13.37;7.40;;;10.20;54.70;;;;;;5042417;28;20188;-50
2021/10/24 00:49:49;;;;;;;8.37;6.83;;;10.20;54.60;;;;;;5037335;28;20431;-50
2021/10/24 00:52:16;;;;;;;8.20;7.00;;;10.20;54.50;;;;;;5040433;28;20428;-53
2021/10/24 00:54:43;;;;;;;9.33;7.90;;;10.20;54.40;;;;;;5037562;28;20436;-49
2021/10/24 00:57:10;;;;;;;8.10;7.23;;;10.30;54.30;;;;;;5041993;28;20929;-53
2021/10/24 00:59:38;;;;;;;10.43;7.43;;;10.20;54.20;;;;;;5049451;28;20926;-49
2021/10/24 01:02:04;;;;;;;9.43;6.70;;;10.20;54.30;;;;;;5049070;28;20494;-53
2021/10/24 01:04:30;;;;;;;11.20;7.00;;;10.20;54.30;;;;;;5043579;28;20427;-50
2021/10/24 01:07:02;;;;;;;10.50;7.37;;;10.20;54.40;;;;;;5043820;28;20432;-52
2021/10/24 01:09:30;;;;;;;9.80;7.17;;;10.10;54.50;;;;;;5050380;28;20427;-49
2021/10/24 01:11:56;;;;;;;7.00;6.30;;;10.20;54.40;;;;;;5042940;28;20812;-53
2021/10/24 01:14:22;;;;;;;10.37;7.00;;;10.20;54.30;;;;;;5043628;28;20444;-49
2021/10/24 01:16:51;;;;;;;9.80;7.20;;;10.10;54.40;;;;;;5047904;28;20439;-50
2021/10/24 01:19:17;;;;;;;12.67;7.40;;;10.10;54.40;;;;;;5048901;28;20277;-50
2021/10/24 01:21:43;;;;;;;10.40;7.77;;;10.00;54.50;;;;;;5050890;28;20522;-53
2021/10/24 01:24:09;;;;;;;9.53;7.50;;;10.10;54.60;;;;;;5050511;28;20520;-49
2021/10/24 01:26:37;;;;;;;11.87;7.70;;;10.00;54.40;;;;;;5050621;28;20188;-49
2021/10/24 01:29:04;;;;;;;11.50;6.90;;;10.10;54.50;;;;;;5048923;28;20436;-52
2021/10/24 01:31:30;;;;;;;8.70;7.17;;;10.10;54.60;;;;;;5049750;28;20461;-53
2021/10/24 01:33:55;;;;;;;8.73;7.20;;;10.00;54.50;;;;;;5050359;28;20446;-49
2021/10/24 01:36:21;;;;;;;12.20;7.67;;;10.00;54.60;;;;;;5040556;28;20215;-52
2021/10/24 01:38:51;;;;;;;8.93;7.10;;;10.00;54.60;;;;;;5049478;28;22059;-51
2021/10/24 01:41:18;;;;;;;8.47;7.23;;;10.00;54.60;;;;;;5045219;28;20208;-50
2021/10/24 01:43:46;;;;;;;8.63;7.23;;;9.90;55.30;;;;;;5050688;28;20475;-49
2021/10/24 01:46:12;;;;;;;10.47;6.90;;;9.90;55.30;;;;;;5048310;28;20876;-50
2021/10/24 01:48:38;;;;;;;9.00;7.83;;;9.80;55.40;;;;;;5051227;28;20484;-50
2021/10/24 01:51:04;;;;;;;8.53;7.63;;;9.80;55.50;;;;;;5050036;28;20839;-50
2021/10/24 01:53:39;;;;;;;9.20;7.47;;;9.90;55.60;;;;;;5049818;28;20334;-51
2021/10/24 01:56:06;;;;;;;8.63;7.20;;;9.80;55.60;;;;;;5049126;28;20559;-49
2021/10/24 01:58:32;;;;;;;9.60;7.57;;;9.70;55.60;;;;;;5046633;28;20434;-49
2021/10/24 02:00:58;;;;;;;7.90;7.10;;;9.70;55.70;;;;;;5049813;28;20469;-49
2021/10/24 02:03:24;;;;;;;7.90;7.10;;;9.80;55.70;;;;;;5041803;28;20447;-48
2021/10/24 02:05:50;;;;;;;9.33;6.70;;;9.80;55.60;;;;;;5049255;28;20200;-53
2021/10/24 02:08:16;;;;;;;8.83;6.70;;;9.80;55.40;;;;;;5050797;28;20224;-51
2021/10/24 02:10:43;;;;;;;7.80;6.53;;;9.80;55.60;;;;;;5049177;28;20188;-52
2021/10/24 02:13:10;;;;;;;10.33;7.20;;;9.80;55.50;;;;;;5049771;28;20443;-53
2021/10/24 02:15:36;;;;;;;6.90;6.30;;;9.90;55.50;;;;;;5048637;28;20488;-53
2021/10/24 02:18:04;;;;;;;7.30;6.57;;;9.90;55.30;;;;;;5048428;28;20458;-52
2021/10/24 02:20:29;;;;;;;7.23;6.40;;;9.90;55.00;;;;;;5048066;28;20572;-53
2021/10/24 02:22:55;;;;;;;7.97;6.27;;;9.90;54.70;;;;;;5049913;28;20486;-54
2021/10/24 02:25:22;;;;;;;7.10;6.40;;;9.90;54.50;;;;;;5041141;28;20278;-53
2021/10/24 02:27:49;;;;;;;9.20;6.53;;;9.80;54.30;;;;;;5052503;28;20559;-54
2021/10/24 02:30:15;;;;;;;8.40;6.20;;;9.80;54.30;;;;;;5054377;28;20444;-53
2021/10/24 02:32:42;;;;;;;7.50;6.70;;;9.70;54.20;;;;;;5059677;28;20542;-51
2021/10/24 02:35:10;;;;;;;9.47;6.07;;;9.70;54.40;;;;;;5060970;28;20455;-52
2021/10/24 02:37:36;;;;;;;6.20;5.43;;;9.70;54.60;;;;;;5051219;28;20439;-51
2021/10/24 02:40:04;;;;;;;9.57;6.13;;;9.70;55.00;;;;;;5054374;28;20448;-53
2021/10/24 02:42:29;;;;;;;10.63;7.00;;;9.70;55.20;;;;;;5055554;28;20919;-53
2021/10/24 02:44:55;;;;;;;6.23;5.43;;;9.70;55.20;;;;;;5053671;28;20554;-53
2021/10/24 02:47:21;;;;;;;10.03;5.90;;;9.80;55.30;;;;;;5052495;28;20192;-51
2021/10/24 02:49:47;;;;;;;5.77;5.23;;;9.70;55.20;;;;;;5055354;28;20213;-52
2021/10/24 02:52:13;;;;;;;7.47;5.40;;;9.70;55.10;;;;;;5050353;28;20438;-49
2021/10/24 02:54:39;;;;;;;6.27;5.50;;;9.70;55.10;;;;;;5054718;28;20451;-52
2021/10/24 02:57:05;;;;;;;5.53;4.50;;;9.80;55.10;;;;;;5059624;28;20232;-52
2021/10/24 02:59:32;;;;;;;6.33;4.80;;;9.80;55.10;;;;;;5055661;28;20271;-49
2021/10/24 03:01:58;;;;;;;9.20;5.30;;;9.80;55.10;;;;;;5051336;28;20556;-53
2021/10/24 03:04:27;;;;;;;5.63;4.63;;;9.80;54.80;;;;;;5049272;28;20448;-51
2021/10/24 03:06:53;;;;;;;6.63;5.43;;;9.80;54.70;;;;;;5045906;28;20838;-53
2021/10/24 03:09:19;;;;;;;5.03;4.53;;;9.90;54.60;;;;;;5052741;28;20446;-50
2021/10/24 03:11:45;;;;;;;6.47;5.43;;;9.90;53.90;;;;;;5054076;28;20445;-52
2021/10/24 03:14:10;;;;;;;7.33;5.87;;;9.80;53.50;;;;;;5052600;28;20431;-52
2021/10/24 03:16:36;;;;;;;6.07;5.47;;;9.80;53.10;;;;;;5054177;28;20192;-50
2021/10/24 03:19:03;;;;;;;6.17;5.57;;;9.70;52.90;;;;;;5057281;28;20235;-52
2021/10/24 03:21:30;;;;;;;7.17;5.70;;;9.60;53.10;;;;;;5053720;28;20224;-50
2021/10/24 03:23:57;;;;;;;8.57;5.57;;;9.60;53.40;;;;;;5052767;28;20529;-49
2021/10/24 03:26:23;;;;;;;5.87;5.27;;;9.50;53.50;;;;;;5044953;28;20467;-54
2021/10/24 03:28:48;;;;;;;7.50;5.40;;;9.50;53.60;;;;;;5052106;28;20448;-53
2021/10/24 03:31:14;;;;;;;8.30;5.43;;;9.50;53.80;;;;;;5079684;28;20504;-53
2021/10/24 03:33:44;;;;;;;6.70;5.47;;;9.40;53.90;;;;;;5051514;28;20593;-53
2021/10/24 03:36:09;;;;;;;9.57;5.90;;;9.40;53.90;;;;;;5052470;28;20458;-54
2021/10/24 03:38:35;;;;;;;7.27;5.47;;;9.40;53.90;;;;;;5050339;28;20452;-52
2021/10/24 03:41:01;;;;;;;7.10;6.33;;;9.40;53.70;;;;;;5048225;28;20596;-50
2021/10/24 03:43:28;;;;;;;7.87;5.83;;;9.30;53.70;;;;;;5049980;28;20214;-52
2021/10/24 03:45:53;;;;;;;8.83;5.77;;;9.30;54.00;;;;;;5054174;28;20203;-52
2021/10/24 03:48:19;;;;;;;7.03;6.00;;;9.30;54.00;;;;;;5055588;28;20561;-51
2021/10/24 03:50:44;;;;;;;9.30;6.20;;;9.30;54.00;;;;;;5051960;28;20192;-48
2021/10/24 03:53:10;;;;;;;7.50;5.67;;;9.20;53.90;;;;;;5051138;28;20291;-49
2021/10/24 03:55:35;;;;;;;9.03;6.33;;;9.20;54.00;;;;;;5048877;28;20200;-53
2021/10/24 03:58:01;;;;;;;8.70;5.30;;;9.30;54.10;;;;;;5045330;28;20587;-53
2021/10/24 04:00:27;;;;;;;6.00;5.47;;;9.20;53.90;;;;;;5045059;28;20189;-53
2021/10/24 04:02:57;;;;;;;7.40;5.80;;;9.10;53.80;;;;;;5051116;28;20600;-54
2021/10/24 04:05:24;;;;;;;7.67;5.80;;;9.10;53.80;;;;;;5047326;28;20197;-53
2021/10/24 04:07:50;;;;;;;6.30;5.27;;;9.10;53.90;;;;;;5040652;28;20457;-52
2021/10/24 04:10:19;;;;;;;7.83;5.87;;;9.00;53.70;;;;;;5044285;28;20436;-52
2021/10/24 04:12:45;;;;;;;6.57;5.30;;;9.10;53.80;;;;;;5044478;28;20450;-52
2021/10/24 04:15:11;;;;;;;11.60;7.20;;;9.00;54.50;;;;;;5047613;28;20435;-53
2021/10/24 04:17:37;;;;;;;10.50;6.67;;;9.00;53.90;;;;;;5041268;28;20211;-49
2021/10/24 04:20:07;;;;;;;10.30;6.70;;;9.10;53.90;;;;;;5049439;28;20240;-53
2021/10/24 04:22:32;;;;;;;10.00;6.40;;;9.00;54.40;;;;;;5055792;28;20572;-52
2021/10/24 04:24:58;;;;;;;9.73;6.53;;;9.00;53.90;;;;;;5049429;28;20521;-53
2021/10/24 04:27:23;;;;;;;8.33;6.20;;;8.90;53.90;;;;;;5051277;28;20671;-53
2021/10/24 04:29:49;;;;;;;8.23;5.67;;;8.90;54.00;;;;;;5049657;28;20221;-54
2021/10/24 04:32:15;;;;;;;6.77;5.43;;;8.80;54.10;;;;;;5066514;28;20648;-52
2021/10/24 04:34:41;;;;;;;6.50;5.47;;;8.90;54.30;;;;;;5049501;28;20608;-53
2021/10/24 04:37:07;;;;;;;6.47;5.03;;;8.90;54.40;;;;;;5046572;28;20578;-53
2021/10/24 04:39:32;;;;;;;9.03;5.37;;;8.90;54.30;;;;;;5046886;28;20200;-53
2021/10/24 04:41:58;;;;;;;6.23;5.40;;;8.80;54.50;;;;;;5051055;28;20232;-52
2021/10/24 04:44:23;;;;;;;10.83;6.30;;;8.80;54.20;;;;;;5049435;28;20197;-53
2021/10/24 04:46:49;;;;;;;6.40;5.13;;;8.80;54.00;;;;;;5049113;28;20201;-54
2021/10/24 04:49:14;;;;;;;6.13;5.53;;;8.80;53.90;;;;;;5051066;28;20198;-51
2021/10/24 04:51:40;;;;;;;5.13;4.63;;;8.80;53.80;;;;;;5052368;28;20265;-53
2021/10/24 04:54:09;;;;;;;5.40;4.90;;;8.40;53.40;;;;;;5049391;28;20610;-53
2021/10/24 04:56:34;;;;;;;6.30;5.03;;;8.40;54.20;;;;;;5053244;28;20296;-54
2021/10/24 04:59:00;;;;;;;9.67;4.80;;;8.40;54.20;;;;;;5052891;28;20515;-53
2021/10/24 05:01:25;;;;;;;7.50;6.70;;;8.40;54.00;;;;;;5050270;28;20307;-52
2021/10/24 05:03:51;;;;;;;10.77;6.87;;;8.40;53.90;;;;;;5049177;28;20199;-53
2021/10/24 05:06:17;;;;;;;6.30;5.13;;;8.50;53.90;;;;;;5049131;28;20193;-53
2021/10/24 05:08:42;;;;;;;8.93;5.50;;;8.50;53.90;;;;;;5048002;28;20456;-53
2021/10/24 05:11:08;;;;;;;6.33;5.63;;;8.50;53.80;;;;;;5044008;28;22131;-51
2021/10/24 05:13:34;;;;;;;6.30;5.47;;;8.40;54.00;;;;;;5051355;28;20316;-53
2021/10/24 05:15:59;;;;;;;10.20;5.20;;;8.40;54.30;;;;;;5043492;28;20193;-50
2021/10/24 05:18:25;;;;;;;6.33;5.70;;;8.40;54.50;;;;;;5042928;28;20193;-48
2021/10/24 05:20:50;;;;;;;7.30;6.00;;;8.60;55.10;;;;;;5047345;28;20770;-50
2021/10/24 05:23:16;;;;;;;6.93;4.90;;;8.80;54.80;;;;;;5049110;28;22398;-49
2021/10/24 05:25:42;;;;;;;7.53;4.90;;;9.10;54.90;;;;;;5047821;28;20193;-50
2021/10/24 05:28:08;;;;;;;5.70;4.93;;;9.20;53.90;;;;;;5051313;28;20195;-52
2021/10/24 05:30:33;;;;;;;6.13;4.93;;;9.20;53.30;;;;;;5049494;28;20193;-49
2021/10/24 05:32:59;;;;;;;6.13;5.30;;;9.20;53.50;;;;;;5047966;28;20533;-51
2021/10/24 05:35:25;;;;;;;8.10;4.67;;;9.40;54.30;;;;;;5049060;28;20314;-50
2021/10/24 05:37:51;;;;;;;6.20;4.37;;;9.50;54.00;;;;;;5049957;28;20193;-51
2021/10/24 05:40:16;;;;;;;7.10;4.60;;;9.60;53.20;;;;;;5048315;28;20446;-51
2021/10/24 05:42:42;;;;;;;7.67;5.57;;;9.60;52.80;;;;;;5042185;28;20270;-48
2021/10/24 05:45:08;;;;;;;6.77;4.80;;;9.70;53.00;;;;;;5038757;28;20215;-48
2021/10/24 05:47:34;;;;;;;6.30;4.80;;;9.80;52.80;;;;;;5036394;28;20188;-50
2021/10/24 05:50:00;;;;;;;10.00;5.10;;;9.90;52.30;;;;;;5047448;28;20431;-51
2021/10/24 05:52:25;;;;;;;5.87;4.80;;;9.90;51.80;;;;;;5041867;28;20610;-48
2021/10/24 05:54:51;;;;;;;6.67;5.43;;;9.80;51.80;;;;;;5041570;28;20204;-49
2021/10/24 05:57:17;;;;;;;7.23;6.37;;;9.70;51.90;;;;;;5041320;28;20195;-50
2021/10/24 05:59:42;;;;;;;9.90;6.50;;;9.70;52.00;;;;;;5043284;28;20280;-52
2021/10/24 06:02:10;;;;;;;6.07;5.07;;;9.60;51.80;;;;;;5045379;28;20216;-48
2021/10/24 06:04:36;;;;;;;6.13;4.07;;;9.60;52.30;;;;;;5047878;28;21037;-51
2021/10/24 06:07:02;;;;;;;6.00;4.47;;;9.70;52.60;;;;;;5049871;28;20443;-48
2021/10/24 06:09:31;;;;;;;5.63;3.80;;;9.90;52.10;;;;;;5044279;28;20435;-48
2021/10/24 06:12:00;;;;;;;6.20;5.60;;;10.00;50.20;;;;;;5050930;28;20441;-51
2021/10/24 06:14:27;;;;;;;7.20;4.73;;;10.00;49.60;;;;;;5046034;28;20431;-52
2021/10/24 06:16:53;;;;;;;7.00;5.77;;;10.00;49.30;;;;;;5049975;28;20815;-50
2021/10/24 06:19:18;;;;;;;6.50;5.70;;;10.00;49.30;;;;;;5043044;28;20467;-50
2021/10/24 06:21:44;;;;;;;6.80;5.10;;;10.00;49.30;;;;;;5050426;28;20224;-51
2021/10/24 06:24:10;;;;;;;8.80;7.50;;;10.10;49.50;;;;;;5051336;28;20270;-52
2021/10/24 06:26:36;;;;;;;12.67;10.93;;;10.30;49.60;;;;;;5044345;28;20547;-52
2021/10/24 06:29:01;;;;;;;7.73;7.00;;;10.40;49.60;;;;;;5036676;28;20193;-50
2021/10/24 06:31:27;;;;;;;8.20;6.77;;;10.60;49.60;;;;;;5047150;28;20247;-49
2021/10/24 06:33:52;;;;;;;8.97;5.57;;;10.80;49.50;;;;;;5053241;28;20643;-48
2021/10/24 06:36:18;;;;;;;6.87;4.83;;;11.00;49.30;;;;;;5052224;28;20660;-48
2021/10/24 06:38:44;;;;;;;4.80;4.40;;;11.30;49.60;;;;;;5053963;28;20193;-49
2021/10/24 06:41:09;;;;;;;7.83;4.90;;;11.50;49.00;;;;;;5046289;28;20280;-50
2021/10/24 06:43:35;;;;;;;16.70;9.70;;;11.80;48.40;;;;;;5045290;28;20519;-48
2021/10/24 06:46:01;;;;;;;10.70;5.90;;;12.10;48.10;;;;;;5042844;28;20227;-51
2021/10/24 06:48:27;;;;;;;7.80;4.77;;;12.30;47.50;;;;;;5043918;28;20459;-50
2021/10/24 06:50:53;;;;;;;4.97;4.47;;;12.60;47.10;;;;;;5052148;28;20567;-49
2021/10/24 06:53:18;;;;;;;5.20;4.70;;;12.70;46.60;;;;;;5045028;28;20196;-48
2021/10/24 06:55:44;;;;;;;7.43;5.03;;;12.90;46.20;;;;;;5048452;28;20272;-50
2021/10/24 06:58:10;;;;;;;7.10;5.30;;;13.10;47.50;;;;;;5051202;28;20272;-51
2021/10/24 07:00:35;;;;;;;8.20;5.67;;;13.30;45.90;;;;;;5042962;28;20651;-51
2021/10/24 07:03:01;;;;;;;9.87;6.40;;;13.40;44.70;;;;;;5050543;28;20224;-51
2021/10/24 07:05:27;;;;;;;5.37;4.83;;;13.40;44.50;;;;;;5045906;28;20276;-49
2021/10/24 07:07:53;;;;;;;6.17;5.10;;;13.40;44.50;;;;;;5048523;28;20200;-52
2021/10/24 07:10:19;;;;;;;6.70;5.40;;;13.30;44.60;;;;;;5039154;28;20598;-49
2021/10/24 07:12:51;;;;;;;8.03;5.30;;;13.40;44.70;;;;;;5037815;28;20440;-49
2021/10/24 07:15:17;;;;;;;5.83;5.33;;;13.40;44.90;;;;;;5037446;28;20447;-48
2021/10/24 07:17:43;;;;;;;6.60;5.93;;;13.40;45.00;;;;;;5041837;28;20451;-49
2021/10/24 07:20:09;;;;;;;7.17;5.50;;;13.40;45.10;;;;;;5036938;28;20843;-48
2021/10/24 07:22:35;;;;;;;5.77;5.10;;;13.30;44.70;;;;;;5077887;28;20258;-53
2021/10/24 07:25:02;;;;;;;7.37;4.80;;;13.40;44.60;;;;;;5050658;28;20950;-50
2021/10/24 07:27:28;;;;;;;6.60;5.57;;;13.30;44.90;;;;;;5063843;28;20188;-50
2021/10/24 07:29:53;;;;;;;8.63;6.67;;;13.30;44.60;;;;;;5042959;28;20455;-47
2021/10/24 07:32:20;;;;;;;8.53;7.40;;;13.40;45.20;;;;;;5038965;28;20247;-47
2021/10/24 07:34:45;;;;;;;8.23;7.47;;;13.50;45.50;;;;;;5043391;28;20188;-48
2021/10/24 07:37:11;;;;;;;10.13;7.17;;;13.70;45.50;;;;;;5048512;28;20596;-46
2021/10/24 07:39:37;;;;;;;7.47;6.77;;;13.90;45.10;;;;;;5052928;28;20200;-47
2021/10/24 07:42:03;;;;;;;11.57;7.53;;;14.00;44.50;;;;;;5052813;28;20220;-51
2021/10/24 07:44:28;;;;;;;10.40;7.00;;;14.00;44.60;;;;;;5046471;28;20189;-48
2021/10/24 07:46:56;;;;;;;8.13;6.30;;;14.10;44.50;;;;;;5053749;28;20430;-48
2021/10/24 07:49:24;;;;;;;6.77;5.60;;;14.10;45.10;;;;;;5052615;28;20192;-52
2021/10/24 07:51:50;;;;;;;6.30;5.70;;;14.10;45.30;;;;;;5051930;28;20453;-51
2021/10/24 07:54:16;;;;;;;6.90;5.60;;;14.10;45.30;;;;;;5050852;28;20434;-49
2021/10/24 07:56:42;;;;;;;6.63;4.87;;;14.20;45.30;;;;;;5049703;28;20632;-47
2021/10/24 07:59:08;;;;;;;7.00;5.83;;;14.30;45.40;;;;;;5053523;28;20451;-47
2021/10/24 08:01:37;;;;;;;6.47;5.87;;;14.20;44.90;;;;;;5050134;28;20224;-51
2021/10/24 08:04:06;;;;;;;6.80;6.10;;;14.10;45.10;;;;;;5053091;28;20518;-51
2021/10/24 08:06:32;;;;;;;7.23;5.87;;;14.10;45.50;;;;;;5049384;28;20446;-48
2021/10/24 08:09:01;;;;;;;5.00;4.50;;;14.10;45.70;;;;;;5053440;28;20469;-47
2021/10/24 08:11:27;;;;;;;6.20;5.23;;;14.10;45.60;;;;;;5052128;28;20948;-48
2021/10/24 08:13:52;;;;;;;5.90;5.27;;;13.40;46.90;;;;;;5041201;28;20435;-48
2021/10/24 08:16:18;;;;;;;6.10;5.40;;;13.30;47.50;;;;;;5043543;28;20463;-47
2021/10/24 08:18:44;;;;;;;5.00;4.50;;;13.30;47.80;;;;;;5036545;28;20229;-47
2021/10/24 08:21:10;;;;;;;8.20;5.33;;;13.20;48.40;;;;;;5043949;28;20201;-48
2021/10/24 08:23:36;;;;;;;5.97;4.47;;;13.10;49.00;;;;;;5049999;28;20311;-47
2021/10/24 08:26:02;;;;;;;7.50;5.43;;;13.20;49.60;;;;;;5046590;28;20949;-50
2021/10/24 08:28:27;;;;;;;6.00;5.10;;;13.20;49.60;;;;;;5041488;28;20223;-47
2021/10/24 08:30:53;;;;;;;5.50;5.00;;;13.30;49.30;;;;;;5050933;28;20198;-47
2021/10/24 08:33:19;;;;;;;5.97;4.93;;;13.40;49.10;;;;;;5052320;28;20237;-48
2021/10/24 08:35:44;;;;;;;8.57;6.27;;;13.60;48.90;;;;;;5043142;28;20625;-48
2021/10/24 08:38:10;;;;;;;7.23;6.53;;;13.80;48.60;;;;;;5052655;28;20205;-47
2021/10/24 08:40:40;;;;;;;8.37;5.90;;;13.80;48.50;;;;;;5054661;28;20461;-47
2021/10/24 08:43:18;;;;;;;11.73;6.90;;;13.90;48.70;;;;;;5050737;28;20240;-47
2021/10/24 08:45:48;;;;;;;8.30;5.13;;;13.80;47.60;;;;;;5048146;28;20431;-48
2021/10/24 08:48:16;;;;;;;5.93;5.33;;;13.60;48.20;;;;;;5052474;28;20435;-47
2021/10/24 08:50:44;;;;;;;8.13;5.90;;;13.80;48.30;;;;;;5047778;28;20946;-47
2021/10/24 08:53:13;;;;;;;7.27;5.90;;;13.90;48.40;;;;;;5052010;28;20439;-48
2021/10/24 08:55:41;;;;;;;7.90;5.23;;;14.00;48.20;;;;;;5049531;28;20443;-47
2021/10/24 08:58:08;;;;;;;10.73;5.70;;;14.10;48.10;;;;;;5052228;28;20466;-47
2021/10/24 09:00:34;;;;;;;8.33;5.73;;;14.40;48.00;;;;;;5049890;28;20941;-48
2021/10/24 09:03:04;;;;;;;7.03;5.17;;;14.60;47.40;;;;;;5050848;28;20490;-47
2021/10/24 09:05:33;;;;;;;6.57;5.10;;;14.70;47.50;;;;;;5037749;28;20221;-48
2021/10/24 09:08:00;;;;;;;7.10;5.73;;;14.90;47.40;;;;;;5046999;28;20469;-47
2021/10/24 09:10:35;;;;;;;5.47;4.90;;;15.10;46.90;;;;;;5041183;28;20774;-47
2021/10/24 09:13:08;;;;;;;7.17;5.33;;;15.30;46.80;;;;;;5046258;28;20426;-48
2021/10/24 09:15:47;;;;;;;5.40;4.90;;;15.50;46.20;;;;;;5044289;28;20438;-52
2021/10/24 09:18:14;;;;;;;9.97;5.40;;;15.70;45.60;;;;;;5041739;28;20849;-50
2021/10/24 09:20:42;;;;;;;6.10;5.03;;;15.90;45.50;;;;;;5044917;28;20495;-47
2021/10/24 09:23:10;;;;;;;7.60;5.03;;;16.00;45.90;;;;;;5044308;28;20515;-49
2021/10/24 09:25:56;;;;;;;6.10;5.43;;;16.20;45.70;;;;;;5046807;28;20423;-48
2021/10/24 09:28:25;;;;;;;8.83;5.47;;;16.30;44.90;;;;;;5041470;28;20443;-49
2021/10/24 09:31:05;;;;;;;6.20;4.73;;;16.50;44.80;;;;;;5051613;28;20440;-51
2021/10/24 09:34:20;;;;;;;6.23;4.60;;;16.70;44.90;;;;;;5041131;28;20462;-50
2021/10/24 09:36:50;;;;;;;6.93;5.57;;;16.80;44.10;;;;;;5044989;28;21052;-52
2021/10/24 09:39:15;;;;;;;4.80;4.40;;;16.80;44.30;;;;;;5034197;28;20440;-50
2021/10/24 09:41:41;;;;;;;7.67;5.27;;;17.00;44.30;;;;;;5039089;28;20541;-48
2021/10/24 09:44:11;;;;;;;4.43;4.03;;;17.20;43.80;;;;;;5046815;28;20207;-47
2021/10/24 09:46:46;;;;;;;4.80;4.40;;;17.50;43.70;;;;;;5048117;28;20185;-48
2021/10/24 09:49:17;;;;;;;6.23;5.20;;;17.50;43.50;;;;;;5038329;28;20434;-51
2021/10/24 09:51:43;;;;;;;5.13;3.57;;;17.70;43.60;;;;;;5042773;28;20500;-51
2021/10/24 09:54:27;;;;;;;4.23;3.60;;;17.70;42.50;;;;;;5039595;28;20480;-50
2021/10/24 09:56:54;;;;;;;4.50;3.57;;;17.60;42.70;;;;;;5042274;28;20730;-52
2021/10/24 09:59:21;;;;;;;5.43;3.30;;;17.80;43.20;;;;;;5047291;28;20462;-48
2021/10/24 10:01:52;;;;;;;3.80;3.30;;;18.10;42.70;;;;;;5043613;28;20568;-48
2021/10/24 10:04:20;;;;;;;7.77;3.83;;;18.40;42.60;;;;;;5042883;28;20423;-48
2021/10/24 10:06:47;;;;;;;4.77;3.17;;;18.50;41.50;;;;;;5040800;28;20856;-53
2021/10/24 10:09:13;;;;;;;4.80;3.30;;;18.60;41.10;;;;;;5035086;28;20955;-50
2021/10/24 10:11:58;;;;;;;4.10;2.80;;;18.30;40.20;;;;;;5037980;28;20484;-52
2021/10/24 10:14:30;;;;;;;3.63;3.33;;;18.30;40.80;;;;;;5042132;28;20431;-53
2021/10/24 10:17:05;;;;;;;4.70;2.77;;;18.60;40.70;;;;;;5036359;28;20915;-51
2021/10/24 10:19:40;;;;;;;3.17;2.57;;;18.80;40.10;;;;;;5033058;28;20478;-52
2021/10/24 10:22:31;;;;;;;6.87;2.70;;;18.90;40.50;;;;;;5039416;28;20489;-52
2021/10/24 10:25:03;;;;;;;3.60;3.00;;;19.00;40.10;;;;;;5045140;28;20494;-52
2021/10/24 10:27:34;;;;;;;4.43;2.93;;;19.10;39.60;;;;;;5050752;28;20439;-53
2021/10/24 10:30:03;;;;;;;3.00;2.70;;;19.00;39.40;;;;;;5049354;28;20933;-51
2021/10/24 10:32:35;;;;;;;8.00;3.00;;;19.10;39.50;;;;;;5036268;28;20445;-52
2021/10/24 10:35:08;;;;;;;4.47;2.90;;;19.20;40.80;;;;;;5037799;28;20427;-51
2021/10/24 10:37:50;;;;;;;4.47;3.17;;;19.50;40.00;;;;;;5046443;28;20468;-52
2021/10/24 10:40:38;;;;;;;4.60;2.73;;;19.10;39.00;;;;;;5040001;28;20438;-52
2021/10/24 10:43:20;;;;;;;4.53;3.07;;;19.30;39.80;;;;;;5049631;28;20494;-52
2021/10/24 10:45:58;;;;;;;4.27;3.07;;;19.60;38.90;;;;;;5044814;28;20442;-53
2021/10/24 10:48:29;;;;;;;4.43;2.80;;;19.80;40.20;;;;;;5047885;28;20890;-52
2021/10/24 10:51:18;;;;;;;4.87;2.90;;;20.10;39.00;;;;;;5036158;28;20531;-50
2021/10/24 10:53:46;;;;;;;3.40;3.00;;;20.60;39.40;;;;;;5042792;28;20853;-49
2021/10/24 10:56:12;;;;;;;3.03;2.83;;;20.80;38.20;;;;;;5039557;28;20446;-49
2021/10/24 10:58:59;;;;;;;2.90;2.70;;;21.00;38.70;;;;;;5050599;28;20427;-53
2021/10/24 11:01:28;;;;;;;4.00;3.07;;;21.10;37.70;;;;;;5046921;28;20216;-52
2021/10/24 11:03:56;;;;;;;3.40;2.67;;;21.30;38.50;;;;;;5040221;28;20444;-53
2021/10/24 11:06:28;;;;;;;4.73;3.47;;;21.40;37.40;;;;;;5044879;28;20998;-52
2021/10/24 11:08:57;;;;;;;2.60;2.40;;;21.70;37.70;;;;;;5049739;28;20443;-51
2021/10/24 11:11:40;;;;;;;3.03;2.77;;;21.80;36.50;;;;;;5053434;28;20797;-52
2021/10/24 11:14:15;;;;;;;4.57;3.27;;;22.00;36.60;;;;;;5044952;28;20450;-52
2021/10/24 11:16:57;;;;;;;3.20;2.90;;;22.00;36.20;;;;;;5046630;28;20856;-52
2021/10/24 11:19:36;;;;;;;3.50;2.20;;;21.80;35.50;;;;;;5056064;28;20478;-48
2021/10/24 11:22:11;;;;;;;3.23;2.70;;;21.70;35.40;;;;;;5074086;28;20484;-52
2021/10/24 11:24:52;;;;;;;3.07;2.57;;;21.70;35.30;;;;;;5045604;28;20489;-49
2021/10/24 11:27:29;;;;;;;2.77;2.50;;;21.70;36.00;;;;;;5057509;28;20477;-53
2021/10/24 11:30:00;;;;;;;5.50;3.33;;;21.80;36.90;;;;;;5038153;28;20446;-49
2021/10/24 11:32:34;;;;;;;3.63;3.20;;;21.90;36.80;;;;;;5052555;28;20442;-51
2021/10/24 11:35:01;;;;;;;3.70;3.23;;;21.90;36.60;;;;;;5049165;28;21234;-51
2021/10/24 11:37:47;;;;;;;5.03;2.77;;;22.00;36.80;;;;;;5050862;28;20446;-51
2021/10/24 11:40:32;;;;;;;2.60;2.40;;;22.10;36.10;;;;;;5036933;28;20448;-52
2021/10/24 11:43:00;;;;;;;3.87;2.67;;;22.10;35.80;;;;;;5048308;28;20992;-48
2021/10/24 11:45:44;;;;;;;5.20;2.50;;;22.10;36.20;;;;;;5051252;28;20431;-49
2021/10/24 11:48:24;;;;;;;3.07;2.77;;;22.30;36.00;;;;;;5051614;28;20431;-52
2021/10/24 11:50:51;;;;;;;4.87;2.47;;;22.40;35.80;;;;;;5048454;28;20450;-48
2021/10/24 11:53:35;;;;;;;4.30;2.53;;;22.50;36.60;;;;;;5046536;28;20450;-48
2021/10/24 11:56:38;;;;;;;4.80;2.50;;;22.60;37.50;;;;;;5045552;28;20458;-49
2021/10/24 11:59:18;;;;;;;3.60;2.23;;;22.80;38.30;;;;;;5039660;28;20505;-51
2021/10/24 12:01:44;;;;;;;3.47;2.53;;;22.70;36.60;;;;;;5044297;28;21642;-49
2021/10/24 12:04:12;;;;;;;3.67;2.50;;;23.20;35.60;;;;;;5046117;28;20980;-51
2021/10/24 12:06:52;;;;;;;1.93;1.83;;;23.40;35.80;;;;;;5049422;28;20211;-50
2021/10/24 12:09:29;;;;;;;4.17;2.27;;;23.80;35.80;;;;;;5054191;28;20819;-47
2021/10/24 12:12:06;;;;;;;2.43;2.20;;;24.00;34.20;;;;;;5052758;28;20534;-46
2021/10/24 12:14:31;;;;;;;3.30;2.60;;;24.10;33.10;;;;;;5049626;28;20460;-51
2021/10/24 12:16:58;;;;;;;1.83;1.73;;;24.20;33.70;;;;;;5052355;28;20464;-48
2021/10/24 12:19:31;;;;;;;2.33;2.13;;;24.30;34.40;;;;;;5044116;28;20278;-51
2021/10/24 12:22:08;;;;;;;2.37;1.90;;;24.40;34.30;;;;;;5056225;28;20491;-50
2021/10/24 12:24:50;;;;;;;3.63;2.30;;;24.70;33.90;;;;;;5045489;28;20532;-51
2021/10/24 12:27:21;;;;;;;2.13;1.93;;;24.90;33.10;;;;;;5045647;28;20427;-48
2021/10/24 12:30:08;;;;;;;3.30;2.20;;;25.10;33.40;;;;;;5037630;28;20440;-48
2021/10/24 12:32:36;;;;;;;6.73;2.07;;;24.80;32.60;;;;;;5041180;28;20442;-48
2021/10/24 12:35:11;;;;;;;4.33;2.07;;;24.90;33.40;;;;;;5047492;28;20842;-50
2021/10/24 12:37:38;;;;;;;2.10;1.90;;;25.20;32.60;;;;;;5050906;28;20439;-47
2021/10/24 12:40:20;;;;;;;2.90;1.87;;;25.30;32.30;;;;;;5049755;28;20449;-50
2021/10/24 12:43:06;;;;;;;3.53;2.40;;;25.50;32.10;;;;;;5046454;28;20504;-47
2021/10/24 12:46:00;;;;;;;2.80;2.23;;;25.40;31.70;;;;;;5048085;28;20435;-50
2021/10/24 12:48:46;;;;;;;2.70;2.27;;;25.30;32.20;;;;;;5044013;28;20473;-47
2021/10/24 12:51:38;;;;;;;3.33;2.70;;;25.30;31.20;;;;;;5043372;28;20491;-50
2021/10/24 12:54:06;;;;;;;2.33;2.13;;;25.30;31.30;;;;;;5034005;28;20458;-51
2021/10/24 12:56:37;;;;;;;2.37;2.17;;;25.30;32.40;;;;;;5043519;28;20538;-51